sensor_id;sensor_type;location;lat;lon;timestamp;P1;durP1;ratioP1;P2;durP2;ratioP2
70953;SDS011;58618;47.490;8.736;2023-06-05T00:00:46;8.50;;;4.93;;
70953;SDS011;58618;47.490;8.736;2023-06-05T00:03:33;9.10;;;4.97;;
70953;SDS011;58618;47.490;8.736;2023-06-05T00:06:23;8.73;;;5.10;;
70953;SDS011;58618;47.490;8.736;2023-06-05T00:09:10;8.27;;;4.50;;
70953;SDS011;58618;47.490;8.736;2023-06-05T00:11:59;9.43;;;4.68;;
70953;SDS011;58618;47.490;8.736;2023-06-05T00:14:46;8.30;;;5.10;;
70953;SDS011;58618;47.490;8.736;2023-06-05T00:17:35;7.60;;;4.50;;
70953;SDS011;58618;47.490;8.736;2023-06-05T00:20:23;9.43;;;4.90;;
70953;SDS011;58618;47.490;8.736;2023-06-05T00:23:10;7.80;;;4.47;;
70953;SDS011;58618;47.490;8.736;2023-06-05T00:25:58;8.50;;;5.00;;
70953;SDS011;58618;47.490;8.736;2023-06-05T00:28:45;8.85;;;5.18;;
70953;SDS011;58618;47.490;8.736;2023-06-05T00:31:33;8.75;;;4.43;;
70953;SDS011;58618;47.490;8.736;2023-06-05T00:34:21;7.93;;;4.63;;
70953;SDS011;58618;47.490;8.736;2023-06-05T00:37:09;9.45;;;4.93;;
70953;SDS011;58618;47.490;8.736;2023-06-05T00:39:57;7.63;;;5.00;;
70953;SDS011;58618;47.490;8.736;2023-06-05T00:42:44;7.38;;;4.57;;
70953;SDS011;58618;47.490;8.736;2023-06-05T00:45:32;8.00;;;5.25;;
70953;SDS011;58618;47.490;8.736;2023-06-05T00:48:19;7.83;;;4.67;;
70953;SDS011;58618;47.490;8.736;2023-06-05T00:51:09;8.50;;;4.90;;
70953;SDS011;58618;47.490;8.736;2023-06-05T00:54:00;8.40;;;4.63;;
70953;SDS011;58618;47.490;8.736;2023-06-05T00:56:48;8.68;;;5.15;;
70953;SDS011;58618;47.490;8.736;2023-06-05T00:59:38;8.38;;;4.95;;
70953;SDS011;58618;47.490;8.736;2023-06-05T01:02:26;8.67;;;5.07;;
70953;SDS011;58618;47.490;8.736;2023-06-05T01:05:14;10.10;;;5.00;;
70953;SDS011;58618;47.490;8.736;2023-06-05T01:08:04;7.97;;;4.85;;
70953;SDS011;58618;47.490;8.736;2023-06-05T01:10:55;8.43;;;4.72;;
70953;SDS011;58618;47.490;8.736;2023-06-05T01:13:49;6.78;;;4.38;;
70953;SDS011;58618;47.490;8.736;2023-06-05T01:16:41;8.10;;;4.77;;
70953;SDS011;58618;47.490;8.736;2023-06-05T01:19:31;8.57;;;4.97;;
70953;SDS011;58618;47.490;8.736;2023-06-05T01:22:19;9.50;;;4.70;;
70953;SDS011;58618;47.490;8.736;2023-06-05T01:25:09;8.43;;;4.70;;
70953;SDS011;58618;47.490;8.736;2023-06-05T01:27:58;6.90;;;4.28;;
70953;SDS011;58618;47.490;8.736;2023-06-05T01:30:50;6.67;;;4.50;;
70953;SDS011;58618;47.490;8.736;2023-06-05T01:33:49;9.52;;;4.95;;
70953;SDS011;58618;47.490;8.736;2023-06-05T01:36:42;8.25;;;5.13;;
70953;SDS011;58618;47.490;8.736;2023-06-05T01:39:30;9.00;;;4.72;;
70953;SDS011;58618;47.490;8.736;2023-06-05T01:42:20;8.13;;;4.72;;
70953;SDS011;58618;47.490;8.736;2023-06-05T01:45:09;7.60;;;4.60;;
70953;SDS011;58618;47.490;8.736;2023-06-05T01:47:58;8.73;;;5.32;;
70953;SDS011;58618;47.490;8.736;2023-06-05T01:50:45;8.40;;;5.07;;
70953;SDS011;58618;47.490;8.736;2023-06-05T01:53:38;8.07;;;4.70;;
70953;SDS011;58618;47.490;8.736;2023-06-05T01:56:26;10.00;;;5.25;;
70953;SDS011;58618;47.490;8.736;2023-06-05T01:59:17;10.23;;;4.43;;
70953;SDS011;58618;47.490;8.736;2023-06-05T02:02:04;9.07;;;5.07;;
70953;SDS011;58618;47.490;8.736;2023-06-05T02:04:52;8.65;;;5.15;;
70953;SDS011;58618;47.490;8.736;2023-06-05T02:07:40;9.05;;;4.88;;
70953;SDS011;58618;47.490;8.736;2023-06-05T02:10:33;7.63;;;5.05;;
70953;SDS011;58618;47.490;8.736;2023-06-05T02:13:20;9.33;;;5.17;;
70953;SDS011;58618;47.490;8.736;2023-06-05T02:16:10;8.57;;;4.68;;
70953;SDS011;58618;47.490;8.736;2023-06-05T02:18:59;9.00;;;5.20;;
70953;SDS011;58618;47.490;8.736;2023-06-05T02:21:49;8.23;;;4.80;;
70953;SDS011;58618;47.490;8.736;2023-06-05T02:24:37;8.07;;;5.03;;
70953;SDS011;58618;47.490;8.736;2023-06-05T02:27:24;10.00;;;5.57;;
70953;SDS011;58618;47.490;8.736;2023-06-05T02:30:12;7.43;;;5.03;;
70953;SDS011;58618;47.490;8.736;2023-06-05T02:33:01;8.60;;;5.53;;
70953;SDS011;58618;47.490;8.736;2023-06-05T02:35:49;8.55;;;5.53;;
70953;SDS011;58618;47.490;8.736;2023-06-05T02:38:37;8.65;;;4.93;;
70953;SDS011;58618;47.490;8.736;2023-06-05T02:41:26;10.50;;;4.93;;
70953;SDS011;58618;47.490;8.736;2023-06-05T02:44:13;9.45;;;5.43;;
70953;SDS011;58618;47.490;8.736;2023-06-05T02:47:00;11.38;;;5.15;;
70953;SDS011;58618;47.490;8.736;2023-06-05T02:49:49;7.55;;;4.88;;
70953;SDS011;58618;47.490;8.736;2023-06-05T02:52:37;8.63;;;5.20;;
70953;SDS011;58618;47.490;8.736;2023-06-05T02:55:25;10.13;;;5.30;;
70953;SDS011;58618;47.490;8.736;2023-06-05T02:58:15;8.48;;;5.45;;
70953;SDS011;58618;47.490;8.736;2023-06-05T03:01:03;8.43;;;5.30;;
70953;SDS011;58618;47.490;8.736;2023-06-05T03:03:54;11.40;;;5.63;;
70953;SDS011;58618;47.490;8.736;2023-06-05T03:06:44;9.70;;;4.93;;
70953;SDS011;58618;47.490;8.736;2023-06-05T03:09:32;8.60;;;5.17;;
70953;SDS011;58618;47.490;8.736;2023-06-05T03:12:20;10.07;;;4.82;;
70953;SDS011;58618;47.490;8.736;2023-06-05T03:15:08;8.68;;;5.40;;
70953;SDS011;58618;47.490;8.736;2023-06-05T03:17:55;8.88;;;5.20;;
70953;SDS011;58618;47.490;8.736;2023-06-05T03:20:43;9.40;;;4.78;;
70953;SDS011;58618;47.490;8.736;2023-06-05T03:23:31;9.83;;;5.30;;
70953;SDS011;58618;47.490;8.736;2023-06-05T03:26:18;8.70;;;5.60;;
70953;SDS011;58618;47.490;8.736;2023-06-05T03:29:08;9.80;;;5.18;;
70953;SDS011;58618;47.490;8.736;2023-06-05T03:31:57;9.20;;;5.45;;
70953;SDS011;58618;47.490;8.736;2023-06-05T03:34:44;9.05;;;5.03;;
70953;SDS011;58618;47.490;8.736;2023-06-05T03:37:34;8.67;;;4.93;;
70953;SDS011;58618;47.490;8.736;2023-06-05T03:40:23;8.27;;;4.88;;
70953;SDS011;58618;47.490;8.736;2023-06-05T03:43:10;9.63;;;4.90;;
70953;SDS011;58618;47.490;8.736;2023-06-05T03:45:57;11.30;;;4.95;;
70953;SDS011;58618;47.490;8.736;2023-06-05T03:48:45;7.57;;;4.53;;
70953;SDS011;58618;47.490;8.736;2023-06-05T03:51:32;8.03;;;5.20;;
70953;SDS011;58618;47.490;8.736;2023-06-05T03:54:20;10.57;;;5.10;;
70953;SDS011;58618;47.490;8.736;2023-06-05T03:57:13;8.35;;;4.95;;
70953;SDS011;58618;47.490;8.736;2023-06-05T04:00:01;10.00;;;5.20;;
70953;SDS011;58618;47.490;8.736;2023-06-05T04:02:49;8.85;;;5.22;;
70953;SDS011;58618;47.490;8.736;2023-06-05T04:05:36;10.60;;;5.03;;
70953;SDS011;58618;47.490;8.736;2023-06-05T04:08:24;9.88;;;5.55;;
70953;SDS011;58618;47.490;8.736;2023-06-05T04:11:12;9.52;;;4.72;;
70953;SDS011;58618;47.490;8.736;2023-06-05T04:14:00;9.48;;;5.53;;
70953;SDS011;58618;47.490;8.736;2023-06-05T04:16:48;9.15;;;4.78;;
70953;SDS011;58618;47.490;8.736;2023-06-05T04:19:35;9.50;;;4.87;;
70953;SDS011;58618;47.490;8.736;2023-06-05T04:22:22;7.40;;;4.45;;
70953;SDS011;58618;47.490;8.736;2023-06-05T04:25:09;7.95;;;4.80;;
70953;SDS011;58618;47.490;8.736;2023-06-05T04:27:58;6.47;;;4.63;;
70953;SDS011;58618;47.490;8.736;2023-06-05T04:30:46;9.15;;;4.85;;
70953;SDS011;58618;47.490;8.736;2023-06-05T04:33:35;9.47;;;4.87;;
70953;SDS011;58618;47.490;8.736;2023-06-05T04:36:23;9.48;;;4.82;;
70953;SDS011;58618;47.490;8.736;2023-06-05T04:39:10;9.13;;;4.57;;
70953;SDS011;58618;47.490;8.736;2023-06-05T04:42:00;8.40;;;4.45;;
70953;SDS011;58618;47.490;8.736;2023-06-05T04:44:53;6.10;;;4.60;;
70953;SDS011;58618;47.490;8.736;2023-06-05T04:47:44;9.10;;;5.00;;
70953;SDS011;58618;47.490;8.736;2023-06-05T04:50:31;6.90;;;4.70;;
70953;SDS011;58618;47.490;8.736;2023-06-05T04:53:19;6.80;;;4.63;;
70953;SDS011;58618;47.490;8.736;2023-06-05T04:56:06;7.78;;;4.80;;
70953;SDS011;58618;47.490;8.736;2023-06-05T04:58:55;6.47;;;4.40;;
70953;SDS011;58618;47.490;8.736;2023-06-05T05:01:42;7.40;;;4.90;;
70953;SDS011;58618;47.490;8.736;2023-06-05T05:04:31;8.45;;;5.07;;
70953;SDS011;58618;47.490;8.736;2023-06-05T05:07:18;8.70;;;5.05;;
70953;SDS011;58618;47.490;8.736;2023-06-05T05:10:08;7.40;;;4.85;;
70953;SDS011;58618;47.490;8.736;2023-06-05T05:12:56;7.35;;;4.40;;
70953;SDS011;58618;47.490;8.736;2023-06-05T05:15:47;8.07;;;4.40;;
70953;SDS011;58618;47.490;8.736;2023-06-05T05:18:34;8.07;;;5.03;;
70953;SDS011;58618;47.490;8.736;2023-06-05T05:21:24;7.07;;;4.63;;
70953;SDS011;58618;47.490;8.736;2023-06-05T05:24:11;7.40;;;4.75;;
70953;SDS011;58618;47.490;8.736;2023-06-05T05:27:00;7.35;;;4.82;;
70953;SDS011;58618;47.490;8.736;2023-06-05T05:29:47;8.77;;;5.10;;
70953;SDS011;58618;47.490;8.736;2023-06-05T05:32:34;7.20;;;4.68;;
70953;SDS011;58618;47.490;8.736;2023-06-05T05:35:22;7.75;;;4.78;;
70953;SDS011;58618;47.490;8.736;2023-06-05T05:38:10;8.07;;;4.70;;
70953;SDS011;58618;47.490;8.736;2023-06-05T05:40:58;7.00;;;4.40;;
70953;SDS011;58618;47.490;8.736;2023-06-05T05:43:45;5.77;;;4.03;;
70953;SDS011;58618;47.490;8.736;2023-06-05T05:46:32;8.73;;;5.00;;
70953;SDS011;58618;47.490;8.736;2023-06-05T05:49:20;7.22;;;5.18;;
70953;SDS011;58618;47.490;8.736;2023-06-05T05:52:08;8.88;;;4.88;;
70953;SDS011;58618;47.490;8.736;2023-06-05T05:54:57;9.38;;;4.82;;
70953;SDS011;58618;47.490;8.736;2023-06-05T05:57:45;7.07;;;4.73;;
70953;SDS011;58618;47.490;8.736;2023-06-05T06:00:32;6.88;;;4.80;;
70953;SDS011;58618;47.490;8.736;2023-06-05T06:03:21;6.47;;;4.55;;
70953;SDS011;58618;47.490;8.736;2023-06-05T06:06:18;6.22;;;4.57;;
70953;SDS011;58618;47.490;8.736;2023-06-05T06:09:06;5.85;;;4.20;;
70953;SDS011;58618;47.490;8.736;2023-06-05T06:11:56;6.47;;;4.33;;
70953;SDS011;58618;47.490;8.736;2023-06-05T06:14:47;5.30;;;4.05;;
70953;SDS011;58618;47.490;8.736;2023-06-05T06:17:35;6.45;;;4.10;;
70953;SDS011;58618;47.490;8.736;2023-06-05T06:20:22;7.57;;;4.63;;
70953;SDS011;58618;47.490;8.736;2023-06-05T06:23:10;5.72;;;4.03;;
70953;SDS011;58618;47.490;8.736;2023-06-05T06:25:57;6.20;;;4.83;;
70953;SDS011;58618;47.490;8.736;2023-06-05T06:28:47;8.02;;;4.78;;
70953;SDS011;58618;47.490;8.736;2023-06-05T06:31:34;6.75;;;4.40;;
70953;SDS011;58618;47.490;8.736;2023-06-05T06:34:22;6.25;;;4.28;;
70953;SDS011;58618;47.490;8.736;2023-06-05T06:37:10;5.95;;;4.00;;
70953;SDS011;58618;47.490;8.736;2023-06-05T06:40:00;7.13;;;4.60;;
70953;SDS011;58618;47.490;8.736;2023-06-05T06:42:49;7.78;;;4.53;;
70953;SDS011;58618;47.490;8.736;2023-06-05T06:45:39;5.88;;;4.22;;
70953;SDS011;58618;47.490;8.736;2023-06-05T06:48:26;7.95;;;4.32;;
70953;SDS011;58618;47.490;8.736;2023-06-05T06:51:14;6.07;;;4.00;;
70953;SDS011;58618;47.490;8.736;2023-06-05T06:54:01;5.63;;;4.40;;
70953;SDS011;58618;47.490;8.736;2023-06-05T06:56:48;5.75;;;4.03;;
70953;SDS011;58618;47.490;8.736;2023-06-05T06:59:36;5.78;;;3.72;;
70953;SDS011;58618;47.490;8.736;2023-06-05T07:02:27;7.32;;;4.28;;
70953;SDS011;58618;47.490;8.736;2023-06-05T07:05:15;6.95;;;4.00;;
70953;SDS011;58618;47.490;8.736;2023-06-05T07:08:03;6.60;;;4.00;;
70953;SDS011;58618;47.490;8.736;2023-06-05T07:10:52;6.53;;;4.03;;
70953;SDS011;58618;47.490;8.736;2023-06-05T07:13:41;7.10;;;4.50;;
70953;SDS011;58618;47.490;8.736;2023-06-05T07:16:28;6.53;;;4.05;;
70953;SDS011;58618;47.490;8.736;2023-06-05T07:19:17;6.90;;;3.90;;
70953;SDS011;58618;47.490;8.736;2023-06-05T07:22:05;5.23;;;3.97;;
70953;SDS011;58618;47.490;8.736;2023-06-05T07:24:52;5.80;;;4.28;;
70953;SDS011;58618;47.490;8.736;2023-06-05T07:27:40;7.25;;;4.45;;
70953;SDS011;58618;47.490;8.736;2023-06-05T07:30:29;5.55;;;4.03;;
70953;SDS011;58618;47.490;8.736;2023-06-05T07:33:17;5.85;;;4.05;;
70953;SDS011;58618;47.490;8.736;2023-06-05T07:36:06;6.63;;;3.87;;
70953;SDS011;58618;47.490;8.736;2023-06-05T07:38:53;6.40;;;3.83;;
70953;SDS011;58618;47.490;8.736;2023-06-05T07:41:42;4.65;;;3.70;;
70953;SDS011;58618;47.490;8.736;2023-06-05T07:44:29;5.53;;;3.90;;
70953;SDS011;58618;47.490;8.736;2023-06-05T07:47:16;6.60;;;3.90;;
70953;SDS011;58618;47.490;8.736;2023-06-05T07:50:04;5.30;;;3.80;;
70953;SDS011;58618;47.490;8.736;2023-06-05T07:52:54;6.65;;;4.20;;
70953;SDS011;58618;47.490;8.736;2023-06-05T07:55:41;6.05;;;3.80;;
70953;SDS011;58618;47.490;8.736;2023-06-05T07:58:28;5.10;;;3.80;;
70953;SDS011;58618;47.490;8.736;2023-06-05T08:01:16;6.57;;;3.65;;
70953;SDS011;58618;47.490;8.736;2023-06-05T08:04:04;7.10;;;3.90;;
70953;SDS011;58618;47.490;8.736;2023-06-05T08:06:56;5.07;;;3.60;;
70953;SDS011;58618;47.490;8.736;2023-06-05T08:09:45;5.00;;;3.85;;
70953;SDS011;58618;47.490;8.736;2023-06-05T08:12:33;5.65;;;3.92;;
70953;SDS011;58618;47.490;8.736;2023-06-05T08:15:20;6.13;;;4.13;;
70953;SDS011;58618;47.490;8.736;2023-06-05T08:18:08;5.53;;;3.60;;
70953;SDS011;58618;47.490;8.736;2023-06-05T08:20:55;6.25;;;3.78;;
70953;SDS011;58618;47.490;8.736;2023-06-05T08:23:43;9.27;;;4.38;;
70953;SDS011;58618;47.490;8.736;2023-06-05T08:26:31;7.07;;;4.03;;
70953;SDS011;58618;47.490;8.736;2023-06-05T08:29:19;7.03;;;4.05;;
70953;SDS011;58618;47.490;8.736;2023-06-05T08:32:06;10.90;;;4.30;;
70953;SDS011;58618;47.490;8.736;2023-06-05T08:34:53;6.85;;;4.35;;
70953;SDS011;58618;47.490;8.736;2023-06-05T08:37:41;8.27;;;4.38;;
70953;SDS011;58618;47.490;8.736;2023-06-05T08:40:28;6.53;;;3.78;;
70953;SDS011;58618;47.490;8.736;2023-06-05T08:43:18;7.50;;;4.70;;
70953;SDS011;58618;47.490;8.736;2023-06-05T08:46:06;8.90;;;5.00;;
70953;SDS011;58618;47.490;8.736;2023-06-05T08:48:56;6.70;;;4.28;;
70953;SDS011;58618;47.490;8.736;2023-06-05T08:51:44;6.88;;;4.60;;
70953;SDS011;58618;47.490;8.736;2023-06-05T08:54:33;10.20;;;4.53;;
70953;SDS011;58618;47.490;8.736;2023-06-05T08:57:23;6.20;;;4.03;;
70953;SDS011;58618;47.490;8.736;2023-06-05T09:00:13;8.67;;;4.60;;
70953;SDS011;58618;47.490;8.736;2023-06-05T09:03:00;5.78;;;4.18;;
70953;SDS011;58618;47.490;8.736;2023-06-05T09:05:48;5.95;;;4.68;;
70953;SDS011;58618;47.490;8.736;2023-06-05T09:08:36;6.63;;;3.88;;
70953;SDS011;58618;47.490;8.736;2023-06-05T09:11:25;6.28;;;4.20;;
70953;SDS011;58618;47.490;8.736;2023-06-05T09:14:14;4.63;;;3.67;;
70953;SDS011;58618;47.490;8.736;2023-06-05T09:17:14;7.03;;;4.45;;
70953;SDS011;58618;47.490;8.736;2023-06-05T09:20:02;8.70;;;4.57;;
70953;SDS011;58618;47.490;8.736;2023-06-05T09:22:50;5.65;;;4.00;;
70953;SDS011;58618;47.490;8.736;2023-06-05T09:25:44;7.25;;;4.20;;
70953;SDS011;58618;47.490;8.736;2023-06-05T09:28:33;4.83;;;3.87;;
70953;SDS011;58618;47.490;8.736;2023-06-05T09:31:21;5.65;;;3.90;;
70953;SDS011;58618;47.490;8.736;2023-06-05T09:34:11;6.38;;;4.22;;
70953;SDS011;58618;47.490;8.736;2023-06-05T09:37:08;5.85;;;4.15;;
70953;SDS011;58618;47.490;8.736;2023-06-05T09:39:56;5.00;;;3.85;;
70953;SDS011;58618;47.490;8.736;2023-06-05T09:42:43;6.50;;;4.10;;
70953;SDS011;58618;47.490;8.736;2023-06-05T09:45:40;5.60;;;4.35;;
70953;SDS011;58618;47.490;8.736;2023-06-05T09:48:28;6.82;;;3.97;;
70953;SDS011;58618;47.490;8.736;2023-06-05T09:51:17;6.45;;;3.53;;
70953;SDS011;58618;47.490;8.736;2023-06-05T09:54:05;5.03;;;3.70;;
70953;SDS011;58618;47.490;8.736;2023-06-05T09:56:54;9.47;;;4.10;;
70953;SDS011;58618;47.490;8.736;2023-06-05T09:59:45;5.47;;;3.70;;
70953;SDS011;58618;47.490;8.736;2023-06-05T10:02:37;6.20;;;3.63;;
70953;SDS011;58618;47.490;8.736;2023-06-05T10:05:25;7.60;;;4.15;;
70953;SDS011;58618;47.490;8.736;2023-06-05T10:08:14;6.93;;;3.78;;
70953;SDS011;58618;47.490;8.736;2023-06-05T10:11:02;6.47;;;3.60;;
70953;SDS011;58618;47.490;8.736;2023-06-05T10:13:50;6.57;;;4.22;;
70953;SDS011;58618;47.490;8.736;2023-06-05T10:16:38;5.05;;;3.60;;
70953;SDS011;58618;47.490;8.736;2023-06-05T10:19:26;5.35;;;3.97;;
70953;SDS011;58618;47.490;8.736;2023-06-05T10:22:16;4.22;;;3.72;;
70953;SDS011;58618;47.490;8.736;2023-06-05T10:25:06;5.10;;;3.70;;
70953;SDS011;58618;47.490;8.736;2023-06-05T10:28:02;8.02;;;4.10;;
70953;SDS011;58618;47.490;8.736;2023-06-05T10:31:13;6.70;;;4.20;;
70953;SDS011;58618;47.490;8.736;2023-06-05T10:34:12;5.80;;;4.07;;
70953;SDS011;58618;47.490;8.736;2023-06-05T10:40:28;5.70;;;3.93;;
70953;SDS011;58618;47.490;8.736;2023-06-05T10:43:29;6.75;;;4.72;;
70953;SDS011;58618;47.490;8.736;2023-06-05T10:46:30;5.95;;;4.10;;
70953;SDS011;58618;47.490;8.736;2023-06-05T10:49:18;7.97;;;4.13;;
70953;SDS011;58618;47.490;8.736;2023-06-05T10:52:07;7.10;;;4.00;;
70953;SDS011;58618;47.490;8.736;2023-06-05T10:55:22;7.27;;;4.23;;
70953;SDS011;58618;47.490;8.736;2023-06-05T10:58:13;5.53;;;4.00;;
70953;SDS011;58618;47.490;8.736;2023-06-05T11:01:16;6.28;;;3.78;;
70953;SDS011;58618;47.490;8.736;2023-06-05T11:04:05;6.68;;;3.88;;
70953;SDS011;58618;47.490;8.736;2023-06-05T11:10:06;5.00;;;3.60;;
70953;SDS011;58618;47.490;8.736;2023-06-05T11:12:58;5.68;;;3.00;;
70953;SDS011;58618;47.490;8.736;2023-06-05T11:15:50;4.47;;;3.28;;
70953;SDS011;58618;47.490;8.736;2023-06-05T11:18:40;4.43;;;3.30;;
70953;SDS011;58618;47.490;8.736;2023-06-05T11:28:10;6.00;;;3.50;;
70953;SDS011;58618;47.490;8.736;2023-06-05T11:30:59;5.13;;;3.65;;
70953;SDS011;58618;47.490;8.736;2023-06-05T11:33:47;6.43;;;3.58;;
70953;SDS011;58618;47.490;8.736;2023-06-05T11:36:34;5.60;;;3.60;;
70953;SDS011;58618;47.490;8.736;2023-06-05T11:39:22;5.63;;;3.80;;
70953;SDS011;58618;47.490;8.736;2023-06-05T11:42:21;5.00;;;3.55;;
70953;SDS011;58618;47.490;8.736;2023-06-05T11:45:10;5.20;;;3.40;;
70953;SDS011;58618;47.490;8.736;2023-06-05T11:48:06;5.95;;;3.50;;
70953;SDS011;58618;47.490;8.736;2023-06-05T11:50:55;6.50;;;3.42;;
70953;SDS011;58618;47.490;8.736;2023-06-05T11:53:44;5.80;;;3.73;;
70953;SDS011;58618;47.490;8.736;2023-06-05T11:56:34;5.28;;;3.55;;
70953;SDS011;58618;47.490;8.736;2023-06-05T11:59:31;5.45;;;3.50;;
70953;SDS011;58618;47.490;8.736;2023-06-05T12:02:20;6.63;;;3.80;;
70953;SDS011;58618;47.490;8.736;2023-06-05T12:05:10;5.85;;;3.90;;
70953;SDS011;58618;47.490;8.736;2023-06-05T12:07:57;5.10;;;3.60;;
70953;SDS011;58618;47.490;8.736;2023-06-05T12:10:45;5.05;;;3.55;;
70953;SDS011;58618;47.490;8.736;2023-06-05T12:13:46;6.85;;;3.63;;
70953;SDS011;58618;47.490;8.736;2023-06-05T12:16:34;5.15;;;3.70;;
70953;SDS011;58618;47.490;8.736;2023-06-05T12:19:23;5.15;;;3.85;;
70953;SDS011;58618;47.490;8.736;2023-06-05T12:22:12;5.90;;;4.10;;
70953;SDS011;58618;47.490;8.736;2023-06-05T12:25:13;7.28;;;3.72;;
70953;SDS011;58618;47.490;8.736;2023-06-05T12:28:02;5.10;;;3.70;;
70953;SDS011;58618;47.490;8.736;2023-06-05T12:31:05;4.43;;;3.58;;
70953;SDS011;58618;47.490;8.736;2023-06-05T12:33:53;9.32;;;4.05;;
70953;SDS011;58618;47.490;8.736;2023-06-05T12:36:40;4.87;;;3.70;;
70953;SDS011;58618;47.490;8.736;2023-06-05T12:39:30;5.03;;;3.70;;
70953;SDS011;58618;47.490;8.736;2023-06-05T12:42:17;6.38;;;3.67;;
70953;SDS011;58618;47.490;8.736;2023-06-05T12:45:07;6.30;;;3.75;;
70953;SDS011;58618;47.490;8.736;2023-06-05T12:47:55;5.28;;;3.90;;
70953;SDS011;58618;47.490;8.736;2023-06-05T12:50:43;5.33;;;3.97;;
70953;SDS011;58618;47.490;8.736;2023-06-05T12:53:30;5.03;;;3.60;;
70953;SDS011;58618;47.490;8.736;2023-06-05T12:56:19;6.50;;;3.60;;
70953;SDS011;58618;47.490;8.736;2023-06-05T12:59:10;6.82;;;3.88;;
70953;SDS011;58618;47.490;8.736;2023-06-05T13:01:58;5.60;;;3.95;;
70953;SDS011;58618;47.490;8.736;2023-06-05T13:04:45;7.53;;;3.97;;
70953;SDS011;58618;47.490;8.736;2023-06-05T13:07:32;5.38;;;3.75;;
70953;SDS011;58618;47.490;8.736;2023-06-05T13:10:20;5.35;;;4.00;;
70953;SDS011;58618;47.490;8.736;2023-06-05T13:13:09;5.57;;;3.70;;
70953;SDS011;58618;47.490;8.736;2023-06-05T13:15:56;7.78;;;4.65;;
70953;SDS011;58618;47.490;8.736;2023-06-05T13:18:44;5.83;;;3.90;;
70953;SDS011;58618;47.490;8.736;2023-06-05T13:21:31;5.05;;;3.75;;
70953;SDS011;58618;47.490;8.736;2023-06-05T13:24:18;6.57;;;3.70;;
70953;SDS011;58618;47.490;8.736;2023-06-05T13:27:05;5.00;;;3.47;;
70953;SDS011;58618;47.490;8.736;2023-06-05T13:29:54;5.78;;;3.97;;
70953;SDS011;58618;47.490;8.736;2023-06-05T13:32:41;7.17;;;3.57;;
70953;SDS011;58618;47.490;8.736;2023-06-05T13:35:30;5.18;;;3.60;;
70953;SDS011;58618;47.490;8.736;2023-06-05T13:38:17;5.00;;;3.60;;
70953;SDS011;58618;47.490;8.736;2023-06-05T13:41:04;6.03;;;3.58;;
70953;SDS011;58618;47.490;8.736;2023-06-05T13:43:52;5.50;;;3.88;;
70953;SDS011;58618;47.490;8.736;2023-06-05T13:46:43;6.20;;;3.87;;
70953;SDS011;58618;47.490;8.736;2023-06-05T13:49:30;5.40;;;3.75;;
70953;SDS011;58618;47.490;8.736;2023-06-05T13:52:18;5.30;;;3.80;;
70953;SDS011;58618;47.490;8.736;2023-06-05T13:55:06;5.68;;;3.80;;
70953;SDS011;58618;47.490;8.736;2023-06-05T13:57:53;6.13;;;3.72;;
70953;SDS011;58618;47.490;8.736;2023-06-05T14:00:42;6.60;;;3.80;;
70953;SDS011;58618;47.490;8.736;2023-06-05T14:03:31;5.03;;;3.58;;
70953;SDS011;58618;47.490;8.736;2023-06-05T14:06:18;5.78;;;3.70;;
70953;SDS011;58618;47.490;8.736;2023-06-05T14:09:06;5.35;;;3.40;;
70953;SDS011;58618;47.490;8.736;2023-06-05T14:11:53;7.82;;;3.75;;
70953;SDS011;58618;47.490;8.736;2023-06-05T14:14:40;5.67;;;3.70;;
70953;SDS011;58618;47.490;8.736;2023-06-05T14:17:28;5.90;;;3.50;;
70953;SDS011;58618;47.490;8.736;2023-06-05T14:20:17;6.82;;;3.70;;
70953;SDS011;58618;47.490;8.736;2023-06-05T14:23:05;4.82;;;3.38;;
70953;SDS011;58618;47.490;8.736;2023-06-05T14:25:52;5.85;;;3.60;;
70953;SDS011;58618;47.490;8.736;2023-06-05T14:28:40;5.80;;;4.07;;
70953;SDS011;58618;47.490;8.736;2023-06-05T14:31:27;7.60;;;3.83;;
70953;SDS011;58618;47.490;8.736;2023-06-05T14:34:14;5.72;;;4.00;;
70953;SDS011;58618;47.490;8.736;2023-06-05T14:37:04;6.72;;;3.80;;
70953;SDS011;58618;47.490;8.736;2023-06-05T14:39:51;6.40;;;4.10;;
70953;SDS011;58618;47.490;8.736;2023-06-05T14:42:38;5.17;;;3.47;;
70953;SDS011;58618;47.490;8.736;2023-06-05T14:45:26;7.28;;;3.92;;
70953;SDS011;58618;47.490;8.736;2023-06-05T14:48:13;5.55;;;3.70;;
70953;SDS011;58618;47.490;8.736;2023-06-05T14:51:01;6.60;;;4.18;;
70953;SDS011;58618;47.490;8.736;2023-06-05T14:53:49;6.50;;;4.00;;
70953;SDS011;58618;47.490;8.736;2023-06-05T14:56:37;5.83;;;3.90;;
70953;SDS011;58618;47.490;8.736;2023-06-05T14:59:24;7.10;;;4.10;;
70953;SDS011;58618;47.490;8.736;2023-06-05T15:02:11;5.47;;;4.03;;
70953;SDS011;58618;47.490;8.736;2023-06-05T15:04:59;5.65;;;3.65;;
70953;SDS011;58618;47.490;8.736;2023-06-05T15:07:46;5.70;;;3.95;;
70953;SDS011;58618;47.490;8.736;2023-06-05T15:10:36;6.23;;;3.80;;
70953;SDS011;58618;47.490;8.736;2023-06-05T15:13:23;5.70;;;4.15;;
70953;SDS011;58618;47.490;8.736;2023-06-05T15:16:10;6.20;;;4.10;;
70953;SDS011;58618;47.490;8.736;2023-06-05T15:18:58;6.78;;;4.18;;
70953;SDS011;58618;47.490;8.736;2023-06-05T15:21:45;6.60;;;4.40;;
70953;SDS011;58618;47.490;8.736;2023-06-05T15:24:33;5.40;;;3.80;;
70953;SDS011;58618;47.490;8.736;2023-06-05T15:27:21;6.93;;;4.78;;
70953;SDS011;58618;47.490;8.736;2023-06-05T15:30:09;6.97;;;4.15;;
70953;SDS011;58618;47.490;8.736;2023-06-05T15:32:56;6.38;;;4.20;;
70953;SDS011;58618;47.490;8.736;2023-06-05T15:35:44;6.28;;;3.97;;
70953;SDS011;58618;47.490;8.736;2023-06-05T15:38:31;6.70;;;4.47;;
70953;SDS011;58618;47.490;8.736;2023-06-05T15:41:18;5.93;;;4.35;;
70953;SDS011;58618;47.490;8.736;2023-06-05T15:44:07;5.22;;;3.78;;
70953;SDS011;58618;47.490;8.736;2023-06-05T15:46:55;5.13;;;4.30;;
70953;SDS011;58618;47.490;8.736;2023-06-05T15:49:42;5.68;;;4.00;;
70953;SDS011;58618;47.490;8.736;2023-06-05T15:52:31;7.73;;;3.80;;
70953;SDS011;58618;47.490;8.736;2023-06-05T15:55:20;6.75;;;3.85;;
70953;SDS011;58618;47.490;8.736;2023-06-05T15:58:09;5.70;;;4.15;;
70953;SDS011;58618;47.490;8.736;2023-06-05T16:00:59;8.20;;;3.80;;
70953;SDS011;58618;47.490;8.736;2023-06-05T16:03:47;6.40;;;4.50;;
70953;SDS011;58618;47.490;8.736;2023-06-05T16:06:35;6.43;;;4.30;;
70953;SDS011;58618;47.490;8.736;2023-06-05T16:09:22;7.47;;;4.20;;
70953;SDS011;58618;47.490;8.736;2023-06-05T16:12:09;7.93;;;4.07;;
70953;SDS011;58618;47.490;8.736;2023-06-05T16:14:57;6.00;;;4.15;;
70953;SDS011;58618;47.490;8.736;2023-06-05T16:17:45;5.38;;;4.20;;
70953;SDS011;58618;47.490;8.736;2023-06-05T16:20:35;6.00;;;4.20;;
70953;SDS011;58618;47.490;8.736;2023-06-05T16:23:22;5.55;;;4.53;;
70953;SDS011;58618;47.490;8.736;2023-06-05T16:26:09;6.20;;;4.25;;
70953;SDS011;58618;47.490;8.736;2023-06-05T16:28:58;7.50;;;4.55;;
70953;SDS011;58618;47.490;8.736;2023-06-05T16:31:46;5.85;;;4.15;;
70953;SDS011;58618;47.490;8.736;2023-06-05T16:34:35;6.73;;;4.40;;
70953;SDS011;58618;47.490;8.736;2023-06-05T16:37:23;8.25;;;5.35;;
70953;SDS011;58618;47.490;8.736;2023-06-05T16:40:15;8.10;;;5.00;;
70953;SDS011;58618;47.490;8.736;2023-06-05T16:43:02;6.45;;;3.97;;
70953;SDS011;58618;47.490;8.736;2023-06-05T16:45:50;7.88;;;4.47;;
70953;SDS011;58618;47.490;8.736;2023-06-05T16:48:40;6.33;;;4.17;;
70953;SDS011;58618;47.490;8.736;2023-06-05T16:51:29;5.95;;;3.85;;
70953;SDS011;58618;47.490;8.736;2023-06-05T16:54:16;6.32;;;4.05;;
70953;SDS011;58618;47.490;8.736;2023-06-05T16:57:06;6.20;;;3.97;;
70953;SDS011;58618;47.490;8.736;2023-06-05T16:59:53;5.28;;;3.97;;
70953;SDS011;58618;47.490;8.736;2023-06-05T17:02:41;5.90;;;3.93;;
70953;SDS011;58618;47.490;8.736;2023-06-05T17:05:28;4.88;;;3.70;;
70953;SDS011;58618;47.490;8.736;2023-06-05T17:08:17;8.60;;;4.30;;
70953;SDS011;58618;47.490;8.736;2023-06-05T17:11:04;5.95;;;4.10;;